Delta Virtual Airport Information Service

Laredo International Airport

ICAO: KLRD Country: United States
Latitude: 27.5438 Longitude: -99.4615
Latest Arrival : SKW2964 (C) (KDFW-KLRD) Latest Departure : SKW3226 (1D) (KLRD-KDFW)


WX CaptureLIVE
Data provided by noaa.gov | Fetched at 01:19:51

METAR : KLRD 300556Z AUTO 08006KT 10SM CLR 16/13 A2994 RMK AO2 SLP137 T01610133 10267 20161 403170161 51027

TAF : KLRD 300556Z AUTO 08006KT 10SM CLR 16/13 A2994 RMK AO2 SLP137 T01610133 10267 20161 403170161 51027


Runway Data for KLRD
Data provided by openaviationdata.com

Runway ID Mag Var Hdg Length Elevation Surface ILS Freq ILS Id ILS Slope
14 7 140° 5938 ft 508 ft Concrete -- -- --
17L 7 175° 8225 ft 508 ft Concrete -- -- --
17R 7 175° 7852 ft 508 ft Asphalt 111.9 ILRD 3
32 7 320° 5938 ft 508 ft Concrete -- -- --
35L 7 355° 7852 ft 508 ft Asphalt -- -- --
35R 7 355° 8225 ft 508 ft Concrete -- -- --

Laredo International Airport, United States
Use only for reference purposes



Not for navigational purposes.